PIMOHWEATHER Station Historical Data
Daily Summary for October 26, 2020 Units:  Metric    English   Both
Daily Weekly Monthly Yearly
  High: Low: Average:
Temperature: 30.0 °C 27.0 °C 28.3 °C
Dew Point: 24.0 °C 22.0 °C 22.9 °C
Humidity: 78% 67% 73%
Wind Speed: 47km/h 6km/h 20.5km/h
Wind Gust: 73km/h - -
Wind- - SSW
Pressure: 1008.9 hPa 1003.6 hPa -
Precipitation: 21.31 mm    
 
 
Tabular Data for October 26, 2020
Time Temperature Dew Point Pressure Wind Wind Speed Wind Gust Humidity Rainfall Rate (Hourly) solar
10:29 29.0 °C 24.0 °C 1005.0 hPa ENE 47 km/h 73 km/h 72% 0.00 mm 260.21 W/m2
10:34 29.0 °C 23.0 °C 1005.0 hPa ESE 21 km/h 32 km/h 72% 0.00 mm 263.76 W/m2
10:39 29.0 °C 23.0 °C 1004.9 hPa SE 30 km/h 40 km/h 72% 0.00 mm 317.46 W/m2
10:44 29.0 °C 24.0 °C 1004.9 hPa ENE 24 km/h 40 km/h 71% 0.00 mm 320.52 W/m2
10:49 29.0 °C 24.0 °C 1005.0 hPa SSE 32 km/h 48 km/h 72% 0.00 mm 310.61 W/m2
10:53 29.0 °C 24.0 °C 1004.8 hPa East 40 km/h 48 km/h 72% 0.00 mm 271.95 W/m2
11:04 29.0 °C 23.0 °C 1004.8 hPa WSW 22 km/h 28 km/h 71% 0.00 mm 278.07 W/m2
11:09 29.0 °C 24.0 °C 1004.9 hPa ESE 29 km/h 36 km/h 72% 0.00 mm 275.37 W/m2
11:13 29.0 °C 24.0 °C 1004.9 hPa NE 35 km/h 44 km/h 71% 0.00 mm 266.69 W/m2
11:19 29.0 °C 23.0 °C 1005.0 hPa East 10 km/h 20 km/h 71% 0.00 mm 241.98 W/m2
11:23 29.0 °C 23.0 °C 1005.2 hPa East 41 km/h 53 km/h 71% 0.00 mm 263.76 W/m2
11:33 29.0 °C 24.0 °C 1005.0 hPa ESE 25 km/h 36 km/h 71% 0.00 mm 244.18 W/m2
11:44 29.0 °C 24.0 °C 1005.0 hPa West 21 km/h 28 km/h 71% 0.00 mm 249.44 W/m2
11:49 29.0 °C 24.0 °C 1004.9 hPa NNW 21 km/h 36 km/h 71% 0.00 mm 281.86 W/m2
11:54 30.0 °C 24.0 °C 1005.0 hPa WNW 25 km/h 40 km/h 70% 0.00 mm 304.49 W/m2
11:59 30.0 °C 24.0 °C 1004.8 hPa WNW 23 km/h 32 km/h 70% 0.00 mm 310.12 W/m2
12:03 30.0 °C 24.0 °C 1004.8 hPa SSW 23 km/h 36 km/h 69% 0.00 mm 279.78 W/m2
12:09 30.0 °C 23.0 °C 1004.8 hPa WSW 28 km/h 44 km/h 69% 0.00 mm 189.98 W/m2
12:13 30.0 °C 23.0 °C 1004.8 hPa West 23 km/h 36 km/h 69% 0.00 mm 181.30 W/m2
12:24 29.0 °C 23.0 °C 1004.7 hPa SW 23 km/h 32 km/h 70% 0.00 mm 317.95 W/m2
12:29 30.0 °C 23.0 °C 1004.7 hPa ENE 38 km/h 56 km/h 69% 0.00 mm 323.09 W/m2
12:33 30.0 °C 23.0 °C 1004.4 hPa WSW 31 km/h 48 km/h 69% 0.00 mm 337.03 W/m2
12:42 30.0 °C 23.0 °C 1004.4 hPa NNE 18 km/h 24 km/h 69% 0.00 mm 248.46 W/m2
12:53 30.0 °C 23.0 °C 1004.5 hPa East 41 km/h 53 km/h 69% 0.00 mm 244.67 W/m2
12:59 30.0 °C 23.0 °C 1004.4 hPa SE 27 km/h 36 km/h 69% 0.00 mm 279.78 W/m2
13:04 30.0 °C 23.0 °C 1004.4 hPa SE 38 km/h 53 km/h 69% 0.00 mm 289.69 W/m2
13:09 30.0 °C 23.0 °C 1004.4 hPa SW 37 km/h 53 km/h 68% 0.00 mm 300.95 W/m2
13:13 30.0 °C 23.0 °C 1004.4 hPa NNW 34 km/h 48 km/h 68% 0.00 mm 325.29 W/m2
13:24 30.0 °C 23.0 °C 1004.2 hPa NE 27 km/h 56 km/h 68% 0.00 mm 345.23 W/m2
13:29 30.0 °C 23.0 °C 1004.1 hPa NW 32 km/h 44 km/h 67% 0.00 mm 346.95 W/m2
13:33 30.0 °C 23.0 °C 1004.0 hPa SSE 22 km/h 40 km/h 68% 0.00 mm 309.63 W/m2
13:39 29.0 °C 23.0 °C 1003.8 hPa East 18 km/h 24 km/h 69% 0.00 mm 311.47 W/m2
13:43 30.0 °C 24.0 °C 1003.9 hPa SSE 26 km/h 36 km/h 70% 0.00 mm 301.44 W/m2
13:53 29.0 °C 23.0 °C 1004.2 hPa East 31 km/h 56 km/h 71% 0.00 mm 229.01 W/m2
14:04 29.0 °C 23.0 °C 1004.1 hPa ENE 17 km/h 24 km/h 71% 0.00 mm 190.84 W/m2
14:09 29.0 °C 23.0 °C 1004.3 hPa East 25 km/h 32 km/h 72% 0.00 mm 184.73 W/m2
14:13 29.0 °C 23.0 °C 1004.3 hPa SW 10 km/h 16 km/h 71% 0.00 mm 163.07 W/m2
14:20 29.0 °C 23.0 °C 1004.0 hPa WNW 10 km/h 16 km/h 71% 0.00 mm 143.99 W/m2
14:39 29.0 °C 23.0 °C 1003.7 hPa WNW 23 km/h 36 km/h 72% 0.00 mm 152.68 W/m2
14:44 28.0 °C 23.0 °C 1003.6 hPa East 36 km/h 48 km/h 73% 0.00 mm 171.76 W/m2
14:49 28.0 °C 23.0 °C 1003.6 hPa ENE 23 km/h 40 km/h 74% 0.00 mm 173.84 W/m2
14:50 28.0 °C 23.0 °C 1003.6 hPa East 39 km/h 48 km/h 73% 0.00 mm 170.90 W/m2
14:59 28.0 °C 23.0 °C 1003.8 hPa East 19 km/h 24 km/h 74% 0.00 mm 167.36 W/m2
15:04 28.0 °C 23.0 °C 1004.0 hPa East 19 km/h 32 km/h 75% 0.00 mm 170.05 W/m2
15:23 28.0 °C 23.0 °C 1004.5 hPa ENE 33 km/h 44 km/h 76% 0.00 mm 53.34 W/m2
15:34 27.0 °C 23.0 °C 1004.2 hPa West 14 km/h 16 km/h 78% 0.00 mm 41.10 W/m2
15:39 27.0 °C 23.0 °C 1004.3 hPa NNW 17 km/h 24 km/h 77% 0.00 mm 38.17 W/m2
15:43 27.0 °C 23.0 °C 1004.5 hPa South 13 km/h 20 km/h 77% 0.00 mm 32.90 W/m2
15:49 27.0 °C 23.0 °C 1004.4 hPa NW 14 km/h 20 km/h 76% 0.00 mm 24.22 W/m2
15:54 28.0 °C 23.0 °C 1004.7 hPa SSE 22 km/h 32 km/h 75% 0.00 mm 19.45 W/m2
15:59 28.0 °C 23.0 °C 1004.7 hPa SSE 14 km/h 24 km/h 74% 0.00 mm 16.88 W/m2
16:04 28.0 °C 23.0 °C 1004.5 hPa SW 20 km/h 28 km/h 74% 0.00 mm 15.53 W/m2
16:09 28.0 °C 22.0 °C 1004.3 hPa SE 31 km/h 40 km/h 73% 0.00 mm 15.53 W/m2
16:14 28.0 °C 22.0 °C 1004.6 hPa WNW 23 km/h 44 km/h 72% 0.00 mm 16.02 W/m2
16:19 28.0 °C 22.0 °C 1004.5 hPa West 23 km/h 32 km/h 72% 0.00 mm 15.53 W/m2
16:24 28.0 °C 22.0 °C 1004.4 hPa WSW 29 km/h 44 km/h 72% 0.00 mm 14.68 W/m2
16:29 28.0 °C 22.0 °C 1004.6 hPa East 24 km/h 32 km/h 72% 0.00 mm 13.82 W/m2
16:34 28.0 °C 22.0 °C 1004.6 hPa West 26 km/h 40 km/h 72% 0.00 mm 13.33 W/m2
16:39 28.0 °C 22.0 °C 1004.9 hPa West 27 km/h 40 km/h 72% 0.00 mm 13.33 W/m2
16:44 28.0 °C 22.0 °C 1004.9 hPa NE 22 km/h 40 km/h 72% 0.00 mm 12.11 W/m2
16:49 28.0 °C 22.0 °C 1004.8 hPa WNW 29 km/h 40 km/h 72% 0.00 mm 10.39 W/m2
16:54 28.0 °C 23.0 °C 1005.1 hPa NNE 30 km/h 40 km/h 72% 0.00 mm 9.05 W/m2
16:59 28.0 °C 23.0 °C 1005.1 hPa WNW 22 km/h 28 km/h 72% 0.00 mm 8.19 W/m2
17:04 28.0 °C 23.0 °C 1005.1 hPa West 18 km/h 32 km/h 72% 0.00 mm 6.48 W/m2
17:09 28.0 °C 23.0 °C 1005.3 hPa West 27 km/h 40 km/h 72% 0.00 mm 4.28 W/m2
17:14 28.0 °C 23.0 °C 1005.3 hPa WSW 20 km/h 28 km/h 72% 0.00 mm 2.94 W/m2
17:19 28.0 °C 23.0 °C 1005.4 hPa SSW 23 km/h 28 km/h 73% 0.00 mm 1.22 W/m2
17:24 28.0 °C 23.0 °C 1005.7 hPa SSW 27 km/h 44 km/h 73% 0.00 mm 0.85 W/m2
17:29 28.0 °C 23.0 °C 1005.9 hPa SSW 15 km/h 20 km/h 74% 0.00 mm 0.00 W/m2
17:34 28.0 °C 23.0 °C 1005.9 hPa WSW 14 km/h 20 km/h 74% 0.00 mm 0.00 W/m2
17:39 28.0 °C 23.0 °C 1006.1 hPa SE 17 km/h 32 km/h 74% 0.00 mm 0.00 W/m2
17:44 28.0 °C 23.0 °C 1006.1 hPa WNW 12 km/h 24 km/h 74% 0.00 mm 0.00 W/m2
17:49 28.0 °C 23.0 °C 1006.3 hPa SSW 13 km/h 24 km/h 74% 0.00 mm 0.00 W/m2
17:54 28.0 °C 23.0 °C 1006.2 hPa SW 9 km/h 12 km/h 74% 0.00 mm 0.00 W/m2
17:59 28.0 °C 23.0 °C 1006.3 hPa West 9 km/h 12 km/h 74% 0.00 mm 0.00 W/m2
18:04 28.0 °C 23.0 °C 1006.4 hPa SE 11 km/h 16 km/h 74% 0.00 mm 0.00 W/m2
18:09 28.0 °C 23.0 °C 1006.4 hPa SE 22 km/h 36 km/h 74% 0.00 mm 0.00 W/m2
18:14 28.0 °C 23.0 °C 1006.5 hPa North 13 km/h 16 km/h 73% 0.00 mm 0.00 W/m2
18:19 28.0 °C 23.0 °C 1006.5 hPa West 15 km/h 20 km/h 73% 0.00 mm 0.00 W/m2
18:24 28.0 °C 23.0 °C 1006.6 hPa SSE 17 km/h 28 km/h 73% 0.00 mm 0.00 W/m2
18:29 28.0 °C 23.0 °C 1006.8 hPa South 13 km/h 16 km/h 73% 0.00 mm 0.00 W/m2
18:34 28.0 °C 23.0 °C 1006.8 hPa West 28 km/h 40 km/h 73% 0.00 mm 0.00 W/m2
18:39 28.0 °C 23.0 °C 1007.0 hPa SSE 34 km/h 44 km/h 73% 0.00 mm 0.00 W/m2
18:44 28.0 °C 23.0 °C 1007.1 hPa West 13 km/h 16 km/h 73% 0.00 mm 0.00 W/m2
18:49 28.0 °C 23.0 °C 1007.1 hPa WNW 12 km/h 20 km/h 72% 0.00 mm 0.00 W/m2
18:54 28.0 °C 23.0 °C 1007.3 hPa ESE 22 km/h 28 km/h 72% 0.00 mm 0.00 W/m2
18:59 28.0 °C 22.0 °C 1007.2 hPa West 14 km/h 20 km/h 72% 0.00 mm 0.00 W/m2
19:04 28.0 °C 23.0 °C 1007.3 hPa South 28 km/h 32 km/h 72% 0.00 mm 0.00 W/m2
19:09 28.0 °C 23.0 °C 1007.4 hPa South 24 km/h 40 km/h 72% 0.00 mm 0.00 W/m2
19:14 28.0 °C 23.0 °C 1007.4 hPa NW 23 km/h 28 km/h 72% 0.00 mm 0.00 W/m2
19:19 28.0 °C 22.0 °C 1007.4 hPa NNE 23 km/h 36 km/h 72% 0.00 mm 0.00 W/m2
19:24 28.0 °C 22.0 °C 1007.5 hPa SW 18 km/h 32 km/h 72% 0.00 mm 0.00 W/m2
19:29 28.0 °C 22.0 °C 1007.3 hPa NNE 25 km/h 44 km/h 72% 0.00 mm 0.00 W/m2
19:34 28.0 °C 22.0 °C 1007.5 hPa ESE 24 km/h 36 km/h 72% 0.00 mm 0.00 W/m2
19:39 28.0 °C 22.0 °C 1007.7 hPa WNW 14 km/h 28 km/h 72% 0.00 mm 0.00 W/m2
19:44 28.0 °C 22.0 °C 1007.7 hPa WNW 15 km/h 24 km/h 72% 0.00 mm 0.00 W/m2
19:49 28.0 °C 22.0 °C 1007.9 hPa SSE 19 km/h 32 km/h 72% 0.00 mm 0.00 W/m2
19:54 28.0 °C 22.0 °C 1007.9 hPa SSE 17 km/h 24 km/h 72% 0.00 mm 0.00 W/m2
19:59 28.0 °C 22.0 °C 1008.0 hPa NE 17 km/h 32 km/h 72% 0.00 mm 0.00 W/m2
20:04 28.0 °C 22.0 °C 1008.0 hPa SE 20 km/h 28 km/h 71% 0.00 mm 0.00 W/m2
20:09 28.0 °C 22.0 °C 1008.0 hPa West 23 km/h 32 km/h 71% 0.00 mm 0.00 W/m2
20:14 28.0 °C 23.0 °C 1008.0 hPa WSW 11 km/h 16 km/h 72% 0.00 mm 0.00 W/m2
20:19 28.0 °C 22.0 °C 1008.0 hPa West 11 km/h 20 km/h 72% 0.00 mm 0.00 W/m2
20:24 28.0 °C 23.0 °C 1008.1 hPa SW 12 km/h 20 km/h 73% 0.00 mm 0.00 W/m2
20:29 28.0 °C 23.0 °C 1008.3 hPa SW 12 km/h 16 km/h 73% 0.00 mm 0.00 W/m2
20:34 28.0 °C 22.0 °C 1008.3 hPa West 10 km/h 12 km/h 73% 0.00 mm 0.00 W/m2
20:39 28.0 °C 22.0 °C 1008.2 hPa West 7 km/h 12 km/h 73% 0.00 mm 0.00 W/m2
20:44 28.0 °C 22.0 °C 1008.3 hPa NW 17 km/h 24 km/h 73% 0.00 mm 0.00 W/m2
20:49 28.0 °C 22.0 °C 1008.5 hPa WNW 9 km/h 12 km/h 73% 0.00 mm 0.00 W/m2
20:54 28.0 °C 23.0 °C 1008.4 hPa West 12 km/h 16 km/h 74% 0.00 mm 0.00 W/m2
20:56 28.0 °C 23.0 °C 1008.4 hPa WNW 6 km/h 8 km/h 74% 0.00 mm 0.00 W/m2
21:04 28.0 °C 23.0 °C 1008.7 hPa SW 13 km/h 20 km/h 74% 0.00 mm 0.00 W/m2
21:09 28.0 °C 23.0 °C 1008.8 hPa WSW 12 km/h 16 km/h 74% 0.00 mm 0.00 W/m2
21:14 28.0 °C 23.0 °C 1008.9 hPa NNW 10 km/h 16 km/h 74% 0.00 mm 0.00 W/m2
21:19 28.0 °C 23.0 °C 1008.7 hPa NNE 22 km/h 28 km/h 73% 0.00 mm 0.00 W/m2
21:24 28.0 °C 23.0 °C 1008.9 hPa NE 18 km/h 28 km/h 73% 0.00 mm 0.00 W/m2
21:29 28.0 °C 23.0 °C 1008.9 hPa SW 18 km/h 28 km/h 73% 0.00 mm 0.00 W/m2
21:34 28.0 °C 23.0 °C 1008.9 hPa NE 17 km/h 28 km/h 73% 0.00 mm 0.00 W/m2
21:39 28.0 °C 23.0 °C 1008.9 hPa SW 15 km/h 24 km/h 73% 0.00 mm 0.00 W/m2
21:44 28.0 °C 23.0 °C 1008.9 hPa SW 17 km/h 24 km/h 73% 0.00 mm 0.00 W/m2
21:49 28.0 °C 23.0 °C 1008.9 hPa SSW 24 km/h 32 km/h 73% 0.00 mm 0.00 W/m2
21:54 28.0 °C 23.0 °C 1008.9 hPa SSE 22 km/h 28 km/h 73% 0.00 mm 0.00 W/m2
21:59 28.0 °C 23.0 °C 1008.7 hPa East 15 km/h 24 km/h 73% 0.00 mm 0.00 W/m2
22:04 28.0 °C 23.0 °C 1008.8 hPa SSE 19 km/h 28 km/h 74% 0.00 mm 0.00 W/m2
22:09 28.0 °C 22.0 °C 1008.6 hPa SSE 22 km/h 36 km/h 73% 0.00 mm 0.00 W/m2
22:14 28.0 °C 23.0 °C 1008.5 hPa East 12 km/h 20 km/h 74% 0.00 mm 0.00 W/m2
22:19 28.0 °C 23.0 °C 1008.4 hPa SW 15 km/h 24 km/h 74% 0.00 mm 0.00 W/m2
22:24 28.0 °C 23.0 °C 1008.4 hPa WSW 11 km/h 16 km/h 74% 0.00 mm 0.00 W/m2
22:29 28.0 °C 23.0 °C 1008.4 hPa NW 11 km/h 16 km/h 74% 0.00 mm 0.00 W/m2
22:34 28.0 °C 23.0 °C 1008.6 hPa SW 16 km/h 28 km/h 74% 0.00 mm 0.00 W/m2
22:39 28.0 °C 23.0 °C 1008.4 hPa SW 14 km/h 24 km/h 74% 0.00 mm 0.00 W/m2
22:44 28.0 °C 23.0 °C 1008.3 hPa West 12 km/h 16 km/h 74% 0.00 mm 0.00 W/m2
22:49 28.0 °C 23.0 °C 1008.4 hPa SW 16 km/h 20 km/h 74% 0.00 mm 0.00 W/m2
22:54 28.0 °C 23.0 °C 1008.2 hPa NNW 18 km/h 24 km/h 74% 0.00 mm 0.00 W/m2
22:59 28.0 °C 23.0 °C 1008.1 hPa WNW 14 km/h 24 km/h 74% 0.00 mm 0.00 W/m2
23:04 28.0 °C 23.0 °C 1008.0 hPa West 17 km/h 24 km/h 75% 0.00 mm 0.00 W/m2
23:09 28.0 °C 23.0 °C 1008.3 hPa SSE 14 km/h 20 km/h 75% 0.00 mm 0.00 W/m2
23:14 28.0 °C 23.0 °C 1008.2 hPa WSW 19 km/h 20 km/h 75% 0.00 mm 0.00 W/m2
23:19 28.0 °C 23.0 °C 1008.1 hPa WSW 15 km/h 24 km/h 75% 0.00 mm 0.00 W/m2
23:24 27.0 °C 23.0 °C 1008.2 hPa WSW 15 km/h 20 km/h 76% 0.00 mm 0.00 W/m2
23:29 27.0 °C 23.0 °C 1008.3 hPa SW 22 km/h 32 km/h 76% 0.00 mm 0.00 W/m2
23:34 27.0 °C 23.0 °C 1008.3 hPa South 18 km/h 24 km/h 76% 0.00 mm 0.00 W/m2
23:39 27.0 °C 23.0 °C 1008.3 hPa SSW 18 km/h 28 km/h 76% 0.00 mm 0.00 W/m2
23:44 27.0 °C 23.0 °C 1008.3 hPa SSW 14 km/h 28 km/h 76% 0.00 mm 0.00 W/m2
23:49 27.0 °C 23.0 °C 1008.3 hPa SW 19 km/h 28 km/h 76% 0.00 mm 0.00 W/m2
23:54 27.0 °C 23.0 °C 1008.3 hPa NE 14 km/h 20 km/h 75% 0.00 mm 0.00 W/m2
23:59 27.0 °C 23.0 °C 1008.3 hPa WSW 16 km/h 24 km/h 75% 0.00 mm 0.00 W/m2
PIMOHWEATHER Philippines
Compliments of Weather Underground - 2 mb